sensor_id;sensor_type;location;lat;lon;timestamp;P1;durP1;ratioP1;P2;durP2;ratioP2
23222;SDS011;11780;13.904;100.620;2023-07-31T00:01:04;12.63;;;6.68;;
23222;SDS011;11780;13.904;100.620;2023-07-31T00:03:34;15.68;;;8.70;;
23222;SDS011;11780;13.904;100.620;2023-07-31T00:06:05;18.27;;;8.85;;
23222;SDS011;11780;13.904;100.620;2023-07-31T00:08:35;18.30;;;11.70;;
23222;SDS011;11780;13.904;100.620;2023-07-31T00:11:06;17.65;;;8.27;;
23222;SDS011;11780;13.904;100.620;2023-07-31T00:13:36;14.27;;;8.80;;
23222;SDS011;11780;13.904;100.620;2023-07-31T00:16:06;15.57;;;8.77;;
23222;SDS011;11780;13.904;100.620;2023-07-31T00:18:37;16.60;;;8.90;;
23222;SDS011;11780;13.904;100.620;2023-07-31T00:21:07;17.00;;;8.95;;
23222;SDS011;11780;13.904;100.620;2023-07-31T00:23:38;20.43;;;8.60;;
23222;SDS011;11780;13.904;100.620;2023-07-31T00:26:08;18.25;;;8.77;;
23222;SDS011;11780;13.904;100.620;2023-07-31T00:28:39;17.83;;;9.00;;
23222;SDS011;11780;13.904;100.620;2023-07-31T00:31:09;17.90;;;8.87;;
23222;SDS011;11780;13.904;100.620;2023-07-31T00:33:39;15.65;;;8.90;;
23222;SDS011;11780;13.904;100.620;2023-07-31T00:36:10;19.80;;;8.48;;
23222;SDS011;11780;13.904;100.620;2023-07-31T00:38:42;17.00;;;8.48;;
23222;SDS011;11780;13.904;100.620;2023-07-31T00:41:12;13.30;;;8.75;;
23222;SDS011;11780;13.904;100.620;2023-07-31T00:43:42;12.77;;;7.88;;
23222;SDS011;11780;13.904;100.620;2023-07-31T00:46:13;17.33;;;7.97;;
23222;SDS011;11780;13.904;100.620;2023-07-31T00:48:43;13.35;;;8.48;;
23222;SDS011;11780;13.904;100.620;2023-07-31T00:51:14;18.50;;;7.57;;
23222;SDS011;11780;13.904;100.620;2023-07-31T00:53:44;15.77;;;8.05;;
23222;SDS011;11780;13.904;100.620;2023-07-31T00:56:16;17.50;;;8.32;;
23222;SDS011;11780;13.904;100.620;2023-07-31T00:58:47;11.60;;;7.63;;
23222;SDS011;11780;13.904;100.620;2023-07-31T01:01:17;13.13;;;7.17;;
23222;SDS011;11780;13.904;100.620;2023-07-31T01:11:35;15.82;;;7.95;;
23222;SDS011;11780;13.904;100.620;2023-07-31T01:14:21;15.25;;;7.97;;
23222;SDS011;11780;13.904;100.620;2023-07-31T01:16:51;18.58;;;9.05;;
23222;SDS011;11780;13.904;100.620;2023-07-31T01:19:23;13.88;;;8.98;;
23222;SDS011;11780;13.904;100.620;2023-07-31T01:22:09;14.35;;;9.15;;
23222;SDS011;11780;13.904;100.620;2023-07-31T01:24:55;17.80;;;9.23;;
23222;SDS011;11780;13.904;100.620;2023-07-31T01:27:31;22.15;;;10.25;;
23222;SDS011;11780;13.904;100.620;2023-07-31T01:30:10;20.70;;;10.77;;
23222;SDS011;11780;13.904;100.620;2023-07-31T01:32:46;19.80;;;12.13;;
23222;SDS011;11780;13.904;100.620;2023-07-31T01:35:19;18.58;;;11.85;;
23222;SDS011;11780;13.904;100.620;2023-07-31T01:37:52;23.07;;;12.20;;
23222;SDS011;11780;13.904;100.620;2023-07-31T01:40:23;20.77;;;11.38;;
23222;SDS011;11780;13.904;100.620;2023-07-31T01:42:53;19.83;;;11.95;;
23222;SDS011;11780;13.904;100.620;2023-07-31T01:45:24;22.33;;;11.80;;
23222;SDS011;11780;13.904;100.620;2023-07-31T01:47:54;27.70;;;11.15;;
23222;SDS011;11780;13.904;100.620;2023-07-31T01:50:25;17.02;;;10.13;;
23222;SDS011;11780;13.904;100.620;2023-07-31T01:52:55;24.07;;;10.67;;
23222;SDS011;11780;13.904;100.620;2023-07-31T01:55:25;19.58;;;9.75;;
23222;SDS011;11780;13.904;100.620;2023-07-31T01:57:55;17.33;;;10.10;;
23222;SDS011;11780;13.904;100.620;2023-07-31T02:00:26;17.52;;;9.48;;
23222;SDS011;11780;13.904;100.620;2023-07-31T02:02:56;15.98;;;9.45;;
23222;SDS011;11780;13.904;100.620;2023-07-31T02:05:26;19.13;;;9.48;;
23222;SDS011;11780;13.904;100.620;2023-07-31T02:07:57;22.85;;;10.13;;
23222;SDS011;11780;13.904;100.620;2023-07-31T02:10:29;16.52;;;8.27;;
23222;SDS011;11780;13.904;100.620;2023-07-31T02:13:00;16.90;;;8.75;;
23222;SDS011;11780;13.904;100.620;2023-07-31T02:15:30;16.10;;;8.83;;
23222;SDS011;11780;13.904;100.620;2023-07-31T02:18:01;16.83;;;9.07;;
23222;SDS011;11780;13.904;100.620;2023-07-31T02:20:34;17.98;;;8.48;;
23222;SDS011;11780;13.904;100.620;2023-07-31T02:23:05;15.98;;;7.30;;
23222;SDS011;11780;13.904;100.620;2023-07-31T02:25:35;11.07;;;6.20;;
23222;SDS011;11780;13.904;100.620;2023-07-31T02:28:05;15.85;;;7.25;;
23222;SDS011;11780;13.904;100.620;2023-07-31T02:30:36;14.60;;;7.40;;
23222;SDS011;11780;13.904;100.620;2023-07-31T02:33:08;12.80;;;6.28;;
23222;SDS011;11780;13.904;100.620;2023-07-31T02:35:38;14.00;;;6.80;;
23222;SDS011;11780;13.904;100.620;2023-07-31T02:38:09;14.45;;;6.93;;
23222;SDS011;11780;13.904;100.620;2023-07-31T02:40:40;11.88;;;5.70;;
23222;SDS011;11780;13.904;100.620;2023-07-31T02:43:11;12.40;;;6.27;;
23222;SDS011;11780;13.904;100.620;2023-07-31T02:45:41;27.98;;;15.65;;
23222;SDS011;11780;13.904;100.620;2023-07-31T02:48:12;118.80;;;58.03;;
23222;SDS011;11780;13.904;100.620;2023-07-31T02:50:42;82.53;;;41.97;;
23222;SDS011;11780;13.904;100.620;2023-07-31T02:53:12;42.25;;;21.42;;
23222;SDS011;11780;13.904;100.620;2023-07-31T02:55:43;28.87;;;13.20;;
23222;SDS011;11780;13.904;100.620;2023-07-31T02:58:13;26.52;;;11.65;;
23222;SDS011;11780;13.904;100.620;2023-07-31T03:00:44;18.17;;;9.73;;
23222;SDS011;11780;13.904;100.620;2023-07-31T03:05:45;20.52;;;9.80;;
23222;SDS011;11780;13.904;100.620;2023-07-31T03:08:15;17.80;;;8.00;;
23222;SDS011;11780;13.904;100.620;2023-07-31T03:10:48;18.02;;;8.30;;
23222;SDS011;11780;13.904;100.620;2023-07-31T03:13:19;17.17;;;7.63;;
23222;SDS011;11780;13.904;100.620;2023-07-31T03:15:50;13.68;;;6.90;;
23222;SDS011;11780;13.904;100.620;2023-07-31T03:18:20;9.82;;;5.70;;
23222;SDS011;11780;13.904;100.620;2023-07-31T03:20:50;14.07;;;6.07;;
23222;SDS011;11780;13.904;100.620;2023-07-31T03:23:21;9.93;;;5.40;;
23222;SDS011;11780;13.904;100.620;2023-07-31T03:25:58;9.17;;;5.43;;
23222;SDS011;11780;13.904;100.620;2023-07-31T03:28:32;12.02;;;5.00;;
23222;SDS011;11780;13.904;100.620;2023-07-31T03:31:03;10.40;;;4.78;;
23222;SDS011;11780;13.904;100.620;2023-07-31T03:33:34;9.30;;;4.70;;
23222;SDS011;11780;13.904;100.620;2023-07-31T03:36:04;6.97;;;3.70;;
23222;SDS011;11780;13.904;100.620;2023-07-31T03:38:35;11.25;;;4.28;;
23222;SDS011;11780;13.904;100.620;2023-07-31T03:41:06;6.78;;;3.30;;
23222;SDS011;11780;13.904;100.620;2023-07-31T03:43:37;6.30;;;3.23;;
23222;SDS011;11780;13.904;100.620;2023-07-31T03:46:07;4.28;;;2.80;;
23222;SDS011;11780;13.904;100.620;2023-07-31T03:48:37;4.45;;;2.75;;
23222;SDS011;11780;13.904;100.620;2023-07-31T03:51:08;4.27;;;2.70;;
23222;SDS011;11780;13.904;100.620;2023-07-31T03:53:38;7.30;;;2.88;;
23222;SDS011;11780;13.904;100.620;2023-07-31T03:56:09;5.33;;;2.70;;
23222;SDS011;11780;13.904;100.620;2023-07-31T03:58:40;4.03;;;2.83;;
23222;SDS011;11780;13.904;100.620;2023-07-31T04:01:10;3.47;;;2.60;;
23222;SDS011;11780;13.904;100.620;2023-07-31T04:03:40;4.50;;;2.37;;
23222;SDS011;11780;13.904;100.620;2023-07-31T04:06:11;5.50;;;2.65;;
23222;SDS011;11780;13.904;100.620;2023-07-31T04:08:41;4.50;;;2.73;;
23222;SDS011;11780;13.904;100.620;2023-07-31T04:11:11;3.85;;;2.25;;
23222;SDS011;11780;13.904;100.620;2023-07-31T04:13:43;4.00;;;2.60;;
23222;SDS011;11780;13.904;100.620;2023-07-31T04:16:13;3.97;;;2.60;;
23222;SDS011;11780;13.904;100.620;2023-07-31T04:18:44;5.00;;;2.63;;
23222;SDS011;11780;13.904;100.620;2023-07-31T04:21:14;5.60;;;2.50;;
23222;SDS011;11780;13.904;100.620;2023-07-31T04:23:44;5.35;;;2.50;;
23222;SDS011;11780;13.904;100.620;2023-07-31T04:26:15;4.77;;;2.40;;
23222;SDS011;11780;13.904;100.620;2023-07-31T04:28:45;4.23;;;2.57;;
23222;SDS011;11780;13.904;100.620;2023-07-31T04:31:16;5.00;;;2.80;;
23222;SDS011;11780;13.904;100.620;2023-07-31T04:33:46;4.47;;;3.03;;
23222;SDS011;11780;13.904;100.620;2023-07-31T04:36:17;5.30;;;2.50;;
23222;SDS011;11780;13.904;100.620;2023-07-31T04:38:47;3.78;;;3.05;;
23222;SDS011;11780;13.904;100.620;2023-07-31T04:41:18;7.93;;;2.67;;
23222;SDS011;11780;13.904;100.620;2023-07-31T04:43:48;5.30;;;3.50;;
23222;SDS011;11780;13.904;100.620;2023-07-31T04:46:19;5.93;;;3.33;;
23222;SDS011;11780;13.904;100.620;2023-07-31T04:48:50;6.47;;;3.13;;
23222;SDS011;11780;13.904;100.620;2023-07-31T04:51:21;5.00;;;3.00;;
23222;SDS011;11780;13.904;100.620;2023-07-31T04:56:22;5.50;;;2.70;;
23222;SDS011;11780;13.904;100.620;2023-07-31T04:58:52;7.95;;;3.00;;
23222;SDS011;11780;13.904;100.620;2023-07-31T05:01:22;4.90;;;3.13;;
23222;SDS011;11780;13.904;100.620;2023-07-31T05:03:52;5.07;;;3.08;;
23222;SDS011;11780;13.904;100.620;2023-07-31T05:06:23;4.20;;;2.90;;
23222;SDS011;11780;13.904;100.620;2023-07-31T05:08:53;6.03;;;3.20;;
23222;SDS011;11780;13.904;100.620;2023-07-31T05:11:24;6.63;;;3.00;;
23222;SDS011;11780;13.904;100.620;2023-07-31T05:13:54;4.73;;;3.03;;
23222;SDS011;11780;13.904;100.620;2023-07-31T05:16:24;3.65;;;2.55;;
23222;SDS011;11780;13.904;100.620;2023-07-31T05:18:56;4.00;;;2.65;;
23222;SDS011;11780;13.904;100.620;2023-07-31T05:21:27;7.40;;;3.40;;
23222;SDS011;11780;13.904;100.620;2023-07-31T05:23:57;3.40;;;2.77;;
23222;SDS011;11780;13.904;100.620;2023-07-31T05:26:28;3.43;;;3.00;;
23222;SDS011;11780;13.904;100.620;2023-07-31T05:28:58;3.35;;;2.88;;
23222;SDS011;11780;13.904;100.620;2023-07-31T05:31:29;5.50;;;3.57;;
23222;SDS011;11780;13.904;100.620;2023-07-31T05:34:01;6.53;;;3.30;;
23222;SDS011;11780;13.904;100.620;2023-07-31T05:36:33;8.50;;;3.22;;
23222;SDS011;11780;13.904;100.620;2023-07-31T05:39:05;6.03;;;3.60;;
23222;SDS011;11780;13.904;100.620;2023-07-31T05:41:37;4.88;;;3.00;;
23222;SDS011;11780;13.904;100.620;2023-07-31T05:44:08;8.43;;;3.83;;
23222;SDS011;11780;13.904;100.620;2023-07-31T05:46:38;7.72;;;3.50;;
23222;SDS011;11780;13.904;100.620;2023-07-31T05:49:09;6.20;;;3.75;;
23222;SDS011;11780;13.904;100.620;2023-07-31T05:51:40;5.57;;;3.28;;
23222;SDS011;11780;13.904;100.620;2023-07-31T05:54:10;7.60;;;3.70;;
23222;SDS011;11780;13.904;100.620;2023-07-31T05:56:40;6.22;;;3.38;;
23222;SDS011;11780;13.904;100.620;2023-07-31T05:59:12;5.43;;;3.47;;
23222;SDS011;11780;13.904;100.620;2023-07-31T06:01:42;8.40;;;4.03;;
23222;SDS011;11780;13.904;100.620;2023-07-31T06:04:13;5.60;;;3.17;;
23222;SDS011;11780;13.904;100.620;2023-07-31T06:06:43;7.77;;;3.70;;
23222;SDS011;11780;13.904;100.620;2023-07-31T06:09:14;7.90;;;3.57;;
23222;SDS011;11780;13.904;100.620;2023-07-31T06:11:44;7.75;;;4.10;;
23222;SDS011;11780;13.904;100.620;2023-07-31T06:14:15;6.23;;;3.70;;
23222;SDS011;11780;13.904;100.620;2023-07-31T06:16:45;8.40;;;3.85;;
23222;SDS011;11780;13.904;100.620;2023-07-31T06:19:15;5.55;;;3.58;;
23222;SDS011;11780;13.904;100.620;2023-07-31T06:21:45;5.78;;;3.15;;
23222;SDS011;11780;13.904;100.620;2023-07-31T06:24:17;7.93;;;3.85;;
23222;SDS011;11780;13.904;100.620;2023-07-31T06:26:49;7.10;;;3.55;;
23222;SDS011;11780;13.904;100.620;2023-07-31T06:29:20;7.90;;;3.80;;
23222;SDS011;11780;13.904;100.620;2023-07-31T06:31:50;8.03;;;4.00;;
23222;SDS011;11780;13.904;100.620;2023-07-31T06:34:21;8.68;;;3.40;;
23222;SDS011;11780;13.904;100.620;2023-07-31T06:36:51;8.93;;;4.20;;
23222;SDS011;11780;13.904;100.620;2023-07-31T06:39:22;6.18;;;3.72;;
23222;SDS011;11780;13.904;100.620;2023-07-31T06:41:52;8.90;;;4.37;;
23222;SDS011;11780;13.904;100.620;2023-07-31T06:44:22;7.45;;;4.53;;
23222;SDS011;11780;13.904;100.620;2023-07-31T06:46:53;4.68;;;3.50;;
23222;SDS011;11780;13.904;100.620;2023-07-31T06:49:23;7.03;;;3.87;;
23222;SDS011;11780;13.904;100.620;2023-07-31T06:51:53;8.07;;;3.60;;
23222;SDS011;11780;13.904;100.620;2023-07-31T06:54:26;10.18;;;4.00;;
23222;SDS011;11780;13.904;100.620;2023-07-31T06:56:56;6.77;;;3.80;;
23222;SDS011;11780;13.904;100.620;2023-07-31T06:59:26;9.40;;;3.75;;
23222;SDS011;11780;13.904;100.620;2023-07-31T07:01:57;7.60;;;3.60;;
23222;SDS011;11780;13.904;100.620;2023-07-31T07:04:29;7.05;;;4.15;;
23222;SDS011;11780;13.904;100.620;2023-07-31T07:06:59;8.88;;;4.05;;
23222;SDS011;11780;13.904;100.620;2023-07-31T07:09:30;6.78;;;3.75;;
23222;SDS011;11780;13.904;100.620;2023-07-31T07:12:00;6.93;;;4.13;;
23222;SDS011;11780;13.904;100.620;2023-07-31T07:14:30;22.52;;;11.25;;
23222;SDS011;11780;13.904;100.620;2023-07-31T07:17:00;38.55;;;20.02;;
23222;SDS011;11780;13.904;100.620;2023-07-31T07:19:31;36.80;;;17.20;;
23222;SDS011;11780;13.904;100.620;2023-07-31T07:22:01;42.70;;;21.92;;
23222;SDS011;11780;13.904;100.620;2023-07-31T07:24:32;28.50;;;14.52;;
23222;SDS011;11780;13.904;100.620;2023-07-31T07:27:02;18.20;;;9.68;;
23222;SDS011;11780;13.904;100.620;2023-07-31T07:29:37;26.90;;;12.55;;
23222;SDS011;11780;13.904;100.620;2023-07-31T07:32:08;17.90;;;9.00;;
23222;SDS011;11780;13.904;100.620;2023-07-31T07:34:38;15.07;;;7.40;;
23222;SDS011;11780;13.904;100.620;2023-07-31T07:37:08;13.27;;;7.30;;
23222;SDS011;11780;13.904;100.620;2023-07-31T07:39:39;12.40;;;6.63;;
23222;SDS011;11780;13.904;100.620;2023-07-31T07:42:09;11.52;;;5.47;;
23222;SDS011;11780;13.904;100.620;2023-07-31T07:44:40;9.43;;;5.07;;
23222;SDS011;11780;13.904;100.620;2023-07-31T07:47:10;9.60;;;5.15;;
23222;SDS011;11780;13.904;100.620;2023-07-31T07:49:40;8.85;;;4.22;;
23222;SDS011;11780;13.904;100.620;2023-07-31T07:52:18;10.00;;;5.20;;
23222;SDS011;11780;13.904;100.620;2023-07-31T07:54:48;8.60;;;4.30;;
23222;SDS011;11780;13.904;100.620;2023-07-31T07:57:19;13.83;;;4.63;;
23222;SDS011;11780;13.904;100.620;2023-07-31T07:59:49;7.20;;;4.68;;
23222;SDS011;11780;13.904;100.620;2023-07-31T08:02:19;9.55;;;4.38;;
23222;SDS011;11780;13.904;100.620;2023-07-31T08:04:50;7.57;;;4.47;;
23222;SDS011;11780;13.904;100.620;2023-07-31T08:07:21;8.65;;;4.60;;
23222;SDS011;11780;13.904;100.620;2023-07-31T08:09:52;12.20;;;5.05;;
23222;SDS011;11780;13.904;100.620;2023-07-31T08:12:22;13.73;;;5.10;;
23222;SDS011;11780;13.904;100.620;2023-07-31T08:14:52;11.32;;;5.03;;
23222;SDS011;11780;13.904;100.620;2023-07-31T08:17:22;8.03;;;4.30;;
23222;SDS011;11780;13.904;100.620;2023-07-31T08:19:53;8.80;;;4.55;;
23222;SDS011;11780;13.904;100.620;2023-07-31T08:22:23;12.25;;;4.68;;
23222;SDS011;11780;13.904;100.620;2023-07-31T08:27:24;7.88;;;4.38;;
23222;SDS011;11780;13.904;100.620;2023-07-31T08:29:55;8.33;;;4.33;;
23222;SDS011;11780;13.904;100.620;2023-07-31T08:32:25;10.90;;;4.95;;
23222;SDS011;11780;13.904;100.620;2023-07-31T08:34:55;9.70;;;5.10;;
23222;SDS011;11780;13.904;100.620;2023-07-31T08:37:26;10.05;;;5.22;;
23222;SDS011;11780;13.904;100.620;2023-07-31T08:39:56;9.77;;;4.90;;
23222;SDS011;11780;13.904;100.620;2023-07-31T08:42:27;12.60;;;5.50;;
23222;SDS011;11780;13.904;100.620;2023-07-31T08:44:59;9.83;;;4.67;;
23222;SDS011;11780;13.904;100.620;2023-07-31T08:47:31;12.20;;;5.22;;
23222;SDS011;11780;13.904;100.620;2023-07-31T08:50:01;12.23;;;5.27;;
23222;SDS011;11780;13.904;100.620;2023-07-31T08:52:32;11.48;;;4.72;;
23222;SDS011;11780;13.904;100.620;2023-07-31T08:55:02;12.60;;;5.40;;
23222;SDS011;11780;13.904;100.620;2023-07-31T08:57:35;10.40;;;4.97;;
23222;SDS011;11780;13.904;100.620;2023-07-31T09:00:07;14.18;;;5.20;;
23222;SDS011;11780;13.904;100.620;2023-07-31T09:02:46;12.35;;;5.43;;
23222;SDS011;11780;13.904;100.620;2023-07-31T09:05:24;11.85;;;5.30;;
23222;SDS011;11780;13.904;100.620;2023-07-31T09:07:56;11.45;;;6.20;;
23222;SDS011;11780;13.904;100.620;2023-07-31T09:12:57;11.60;;;6.30;;
23222;SDS011;11780;13.904;100.620;2023-07-31T09:15:28;11.00;;;4.90;;
23222;SDS011;11780;13.904;100.620;2023-07-31T09:18:05;10.40;;;5.53;;
23222;SDS011;11780;13.904;100.620;2023-07-31T09:20:37;11.05;;;5.35;;
23222;SDS011;11780;13.904;100.620;2023-07-31T09:23:11;15.50;;;6.05;;
23222;SDS011;11780;13.904;100.620;2023-07-31T09:25:43;11.80;;;6.13;;
23222;SDS011;11780;13.904;100.620;2023-07-31T09:28:14;14.15;;;6.65;;
23222;SDS011;11780;13.904;100.620;2023-07-31T09:30:49;14.32;;;6.72;;
23222;SDS011;11780;13.904;100.620;2023-07-31T09:33:20;17.38;;;6.45;;
23222;SDS011;11780;13.904;100.620;2023-07-31T09:35:51;14.98;;;6.45;;
23222;SDS011;11780;13.904;100.620;2023-07-31T09:38:21;16.37;;;6.60;;
23222;SDS011;11780;13.904;100.620;2023-07-31T09:40:51;17.15;;;6.72;;
23222;SDS011;11780;13.904;100.620;2023-07-31T09:43:22;11.17;;;5.63;;
23222;SDS011;11780;13.904;100.620;2023-07-31T09:45:54;16.38;;;6.00;;
23222;SDS011;11780;13.904;100.620;2023-07-31T09:48:26;15.25;;;6.00;;
23222;SDS011;11780;13.904;100.620;2023-07-31T09:50:57;11.93;;;6.63;;
23222;SDS011;11780;13.904;100.620;2023-07-31T09:53:34;12.18;;;6.20;;
23222;SDS011;11780;13.904;100.620;2023-07-31T09:56:05;15.77;;;6.93;;
23222;SDS011;11780;13.904;100.620;2023-07-31T09:58:35;11.68;;;5.85;;
23222;SDS011;11780;13.904;100.620;2023-07-31T10:01:06;14.05;;;5.63;;
23222;SDS011;11780;13.904;100.620;2023-07-31T10:03:37;11.65;;;5.50;;
23222;SDS011;11780;13.904;100.620;2023-07-31T10:06:09;8.30;;;4.68;;
23222;SDS011;11780;13.904;100.620;2023-07-31T10:08:40;7.25;;;4.88;;
23222;SDS011;11780;13.904;100.620;2023-07-31T10:11:11;14.90;;;5.90;;
23222;SDS011;11780;13.904;100.620;2023-07-31T10:13:43;16.23;;;5.60;;
23222;SDS011;11780;13.904;100.620;2023-07-31T10:16:14;9.48;;;4.80;;
23222;SDS011;11780;13.904;100.620;2023-07-31T10:18:46;15.90;;;6.85;;
23222;SDS011;11780;13.904;100.620;2023-07-31T10:21:17;11.88;;;5.90;;
23222;SDS011;11780;13.904;100.620;2023-07-31T10:23:47;12.83;;;5.93;;
23222;SDS011;11780;13.904;100.620;2023-07-31T10:26:19;14.80;;;6.50;;
23222;SDS011;11780;13.904;100.620;2023-07-31T10:28:53;14.15;;;6.18;;
23222;SDS011;11780;13.904;100.620;2023-07-31T10:31:24;15.82;;;6.50;;
23222;SDS011;11780;13.904;100.620;2023-07-31T10:33:55;17.63;;;6.57;;
23222;SDS011;11780;13.904;100.620;2023-07-31T10:36:28;14.90;;;6.68;;
23222;SDS011;11780;13.904;100.620;2023-07-31T10:38:59;17.13;;;7.33;;
23222;SDS011;11780;13.904;100.620;2023-07-31T10:41:30;14.07;;;6.55;;
23222;SDS011;11780;13.904;100.620;2023-07-31T10:44:01;14.87;;;6.70;;
23222;SDS011;11780;13.904;100.620;2023-07-31T10:46:32;16.47;;;6.53;;
23222;SDS011;11780;13.904;100.620;2023-07-31T10:49:02;18.58;;;6.55;;
23222;SDS011;11780;13.904;100.620;2023-07-31T10:51:34;18.30;;;6.13;;
23222;SDS011;11780;13.904;100.620;2023-07-31T10:54:12;17.65;;;6.88;;
23222;SDS011;11780;13.904;100.620;2023-07-31T10:56:53;12.35;;;5.28;;
23222;SDS011;11780;13.904;100.620;2023-07-31T10:59:27;13.60;;;6.63;;
23222;SDS011;11780;13.904;100.620;2023-07-31T11:02:04;16.27;;;6.95;;
23222;SDS011;11780;13.904;100.620;2023-07-31T11:05:12;14.68;;;6.32;;
23222;SDS011;11780;13.904;100.620;2023-07-31T11:07:49;14.40;;;6.50;;
23222;SDS011;11780;13.904;100.620;2023-07-31T11:10:19;17.10;;;7.38;;
23222;SDS011;11780;13.904;100.620;2023-07-31T11:12:52;19.65;;;7.10;;
23222;SDS011;11780;13.904;100.620;2023-07-31T11:15:26;14.90;;;6.50;;
23222;SDS011;11780;13.904;100.620;2023-07-31T11:17:56;16.90;;;6.25;;
23222;SDS011;11780;13.904;100.620;2023-07-31T11:20:33;14.70;;;6.82;;
23222;SDS011;11780;13.904;100.620;2023-07-31T11:23:08;16.40;;;6.57;;
23222;SDS011;11780;13.904;100.620;2023-07-31T11:25:39;18.48;;;6.88;;
23222;SDS011;11780;13.904;100.620;2023-07-31T11:28:12;16.58;;;7.25;;
23222;SDS011;11780;13.904;100.620;2023-07-31T11:30:44;15.00;;;5.85;;
23222;SDS011;11780;13.904;100.620;2023-07-31T11:33:16;13.85;;;6.47;;
23222;SDS011;11780;13.904;100.620;2023-07-31T11:35:47;18.53;;;7.47;;
23222;SDS011;11780;13.904;100.620;2023-07-31T11:41:00;11.83;;;6.77;;
23222;SDS011;11780;13.904;100.620;2023-07-31T11:43:32;22.40;;;7.70;;
23222;SDS011;11780;13.904;100.620;2023-07-31T11:46:02;14.30;;;6.17;;
23222;SDS011;11780;13.904;100.620;2023-07-31T11:48:34;18.40;;;7.18;;
23222;SDS011;11780;13.904;100.620;2023-07-31T11:51:09;18.33;;;6.38;;
23222;SDS011;11780;13.904;100.620;2023-07-31T13:41:39;21.58;;;7.78;;
23222;SDS011;11780;13.904;100.620;2023-07-31T13:44:10;14.53;;;7.23;;
23222;SDS011;11780;13.904;100.620;2023-07-31T13:46:40;21.23;;;7.57;;
23222;SDS011;11780;13.904;100.620;2023-07-31T13:49:11;21.90;;;7.57;;
23222;SDS011;11780;13.904;100.620;2023-07-31T13:51:41;22.95;;;7.30;;
23222;SDS011;11780;13.904;100.620;2023-07-31T13:54:11;15.47;;;7.40;;
23222;SDS011;11780;13.904;100.620;2023-07-31T13:56:43;18.13;;;7.20;;
23222;SDS011;11780;13.904;100.620;2023-07-31T13:59:13;18.23;;;7.53;;
23222;SDS011;11780;13.904;100.620;2023-07-31T14:01:46;20.70;;;8.02;;
23222;SDS011;11780;13.904;100.620;2023-07-31T14:04:17;18.92;;;8.43;;
23222;SDS011;11780;13.904;100.620;2023-07-31T14:06:47;17.17;;;7.47;;
23222;SDS011;11780;13.904;100.620;2023-07-31T14:09:19;18.98;;;8.15;;
23222;SDS011;11780;13.904;100.620;2023-07-31T14:11:50;16.53;;;7.23;;
23222;SDS011;11780;13.904;100.620;2023-07-31T14:14:20;16.37;;;7.83;;
23222;SDS011;11780;13.904;100.620;2023-07-31T14:16:51;21.05;;;8.05;;
23222;SDS011;11780;13.904;100.620;2023-07-31T14:19:21;23.77;;;7.77;;
23222;SDS011;11780;13.904;100.620;2023-07-31T14:21:52;27.10;;;7.97;;
23222;SDS011;11780;13.904;100.620;2023-07-31T14:24:38;22.55;;;8.15;;
23222;SDS011;11780;13.904;100.620;2023-07-31T14:27:08;19.98;;;7.88;;
23222;SDS011;11780;13.904;100.620;2023-07-31T14:29:38;20.47;;;7.77;;
23222;SDS011;11780;13.904;100.620;2023-07-31T14:32:09;17.38;;;7.07;;
23222;SDS011;11780;13.904;100.620;2023-07-31T14:34:39;18.65;;;7.95;;
23222;SDS011;11780;13.904;100.620;2023-07-31T14:37:09;20.02;;;8.20;;
23222;SDS011;11780;13.904;100.620;2023-07-31T14:39:40;20.23;;;8.45;;
23222;SDS011;11780;13.904;100.620;2023-07-31T14:42:10;19.25;;;7.43;;
23222;SDS011;11780;13.904;100.620;2023-07-31T14:44:40;20.23;;;8.23;;
23222;SDS011;11780;13.904;100.620;2023-07-31T14:47:11;18.23;;;7.38;;
23222;SDS011;11780;13.904;100.620;2023-07-31T14:49:41;17.80;;;7.03;;
23222;SDS011;11780;13.904;100.620;2023-07-31T14:52:11;19.83;;;7.72;;
23222;SDS011;11780;13.904;100.620;2023-07-31T14:54:42;21.27;;;7.47;;
23222;SDS011;11780;13.904;100.620;2023-07-31T14:57:12;17.30;;;7.45;;
23222;SDS011;11780;13.904;100.620;2023-07-31T14:59:42;17.58;;;7.70;;
23222;SDS011;11780;13.904;100.620;2023-07-31T15:02:14;15.80;;;8.00;;
23222;SDS011;11780;13.904;100.620;2023-07-31T15:04:45;14.82;;;7.00;;
23222;SDS011;11780;13.904;100.620;2023-07-31T15:07:15;13.75;;;7.50;;
23222;SDS011;11780;13.904;100.620;2023-07-31T15:09:46;19.67;;;8.23;;
23222;SDS011;11780;13.904;100.620;2023-07-31T15:12:16;17.40;;;8.18;;
23222;SDS011;11780;13.904;100.620;2023-07-31T15:14:50;19.55;;;7.53;;
23222;SDS011;11780;13.904;100.620;2023-07-31T15:17:21;16.33;;;7.28;;
23222;SDS011;11780;13.904;100.620;2023-07-31T15:19:52;13.60;;;7.77;;
23222;SDS011;11780;13.904;100.620;2023-07-31T15:22:22;14.30;;;7.13;;
23222;SDS011;11780;13.904;100.620;2023-07-31T15:24:54;13.40;;;7.50;;
23222;SDS011;11780;13.904;100.620;2023-07-31T15:27:24;12.73;;;6.53;;
23222;SDS011;11780;13.904;100.620;2023-07-31T15:29:54;15.40;;;7.28;;
23222;SDS011;11780;13.904;100.620;2023-07-31T15:32:25;16.13;;;6.85;;
23222;SDS011;11780;13.904;100.620;2023-07-31T15:37:26;13.57;;;6.55;;
23222;SDS011;11780;13.904;100.620;2023-07-31T15:39:57;17.47;;;7.03;;
23222;SDS011;11780;13.904;100.620;2023-07-31T15:42:27;10.20;;;6.32;;
23222;SDS011;11780;13.904;100.620;2023-07-31T15:44:57;12.20;;;6.40;;
23222;SDS011;11780;13.904;100.620;2023-07-31T15:47:28;14.98;;;7.15;;
23222;SDS011;11780;13.904;100.620;2023-07-31T15:49:58;17.58;;;6.72;;
23222;SDS011;11780;13.904;100.620;2023-07-31T15:52:29;19.95;;;7.32;;
23222;SDS011;11780;13.904;100.620;2023-07-31T15:54:59;16.42;;;6.47;;
23222;SDS011;11780;13.904;100.620;2023-07-31T15:57:30;13.80;;;7.00;;
23222;SDS011;11780;13.904;100.620;2023-07-31T16:00:00;14.73;;;7.20;;
23222;SDS011;11780;13.904;100.620;2023-07-31T16:02:33;14.75;;;7.00;;
23222;SDS011;11780;13.904;100.620;2023-07-31T16:05:04;13.00;;;6.75;;
23222;SDS011;11780;13.904;100.620;2023-07-31T16:07:35;11.60;;;7.33;;
23222;SDS011;11780;13.904;100.620;2023-07-31T16:12:36;14.95;;;7.53;;
23222;SDS011;11780;13.904;100.620;2023-07-31T16:15:07;15.13;;;7.37;;
23222;SDS011;11780;13.904;100.620;2023-07-31T16:17:38;14.73;;;7.00;;
23222;SDS011;11780;13.904;100.620;2023-07-31T16:20:08;16.67;;;6.33;;
23222;SDS011;11780;13.904;100.620;2023-07-31T16:22:39;11.57;;;6.23;;
23222;SDS011;11780;13.904;100.620;2023-07-31T16:25:10;14.20;;;6.40;;
23222;SDS011;11780;13.904;100.620;2023-07-31T16:27:40;16.40;;;7.25;;
23222;SDS011;11780;13.904;100.620;2023-07-31T16:30:11;11.07;;;6.00;;
23222;SDS011;11780;13.904;100.620;2023-07-31T16:32:41;13.60;;;6.88;;
23222;SDS011;11780;13.904;100.620;2023-07-31T16:35:11;14.60;;;6.10;;
23222;SDS011;11780;13.904;100.620;2023-07-31T16:37:42;16.47;;;6.70;;
23222;SDS011;11780;13.904;100.620;2023-07-31T16:42:43;10.95;;;6.97;;
23222;SDS011;11780;13.904;100.620;2023-07-31T16:45:13;13.97;;;7.00;;
23222;SDS011;11780;13.904;100.620;2023-07-31T16:47:44;10.50;;;6.15;;
23222;SDS011;11780;13.904;100.620;2023-07-31T16:50:15;15.43;;;6.45;;